createdAt,value
2018-07-28T00:00:01.353Z,992.43
2018-07-28T00:05:01.680Z,992.35
2018-07-28T00:10:02.091Z,992.32
2018-07-28T00:15:01.335Z,992.33
2018-07-28T00:20:01.647Z,992.32
2018-07-28T00:25:01.965Z,992.28
2018-07-28T00:30:02.221Z,992.19
2018-07-28T00:35:01.523Z,992.2
2018-07-28T00:40:01.792Z,992.16
2018-07-28T00:45:02.123Z,992.1
2018-07-28T00:50:01.531Z,992.02
2018-07-28T00:55:01.842Z,991.97
2018-07-28T01:00:02.132Z,991.95
2018-07-28T01:05:01.619Z,992
2018-07-28T01:10:01.996Z,991.92
2018-07-28T01:15:01.292Z,991.93
2018-07-28T01:20:01.811Z,991.95
2018-07-28T01:25:02.202Z,991.86
2018-07-28T01:30:01.523Z,991.78
2018-07-28T01:35:02.076Z,991.79
2018-07-28T01:40:01.407Z,991.76
2018-07-28T01:45:01.816Z,991.68
2018-07-28T01:50:02.321Z,991.67
2018-07-28T01:55:01.635Z,991.57
2018-07-28T02:00:01.938Z,991.58
2018-07-28T02:05:02.488Z,991.52
2018-07-28T02:10:01.883Z,991.54
2018-07-28T02:15:02.204Z,991.63
2018-07-28T02:20:01.555Z,991.84
2018-07-28T02:25:01.811Z,992.05
2018-07-28T02:30:02.306Z,991.94
2018-07-28T02:35:01.677Z,991.98
2018-07-28T02:40:01.442Z,991.84
2018-07-28T02:45:01.895Z,991.79
2018-07-28T02:50:02.373Z,991.62
2018-07-28T02:55:01.639Z,991.58
2018-07-28T03:00:01.887Z,991.52
2018-07-28T03:05:02.408Z,991.77
2018-07-28T03:10:01.665Z,992.26
2018-07-28T03:15:01.946Z,992.19
2018-07-28T03:20:02.509Z,992.24
2018-07-28T03:25:01.896Z,992.22
2018-07-28T03:30:02.169Z,992.25
2018-07-28T03:35:01.446Z,992.04
2018-07-28T03:40:01.717Z,992.14
2018-07-28T03:45:02.032Z,992.18
2018-07-28T03:50:01.273Z,992.03
2018-07-28T03:55:01.539Z,992.13
2018-07-28T04:00:01.825Z,992.14
2018-07-28T04:05:02.126Z,992.16
2018-07-28T04:10:01.368Z,992.19
2018-07-28T04:15:01.662Z,992.2
2018-07-28T04:20:02.238Z,992.01
2018-07-28T04:25:01.598Z,991.97
2018-07-28T04:30:01.853Z,991.93
2018-07-28T04:35:02.284Z,991.69
2018-07-28T04:40:01.843Z,991.56
2018-07-28T04:45:02.131Z,991.51
2018-07-28T04:50:01.383Z,991.5
2018-07-28T04:55:01.687Z,991.44
2018-07-28T05:00:01.998Z,991.29
2018-07-28T05:05:01.284Z,991.35
2018-07-28T05:10:01.549Z,991.47
2018-07-28T05:15:01.833Z,991.58
2018-07-28T05:20:02.388Z,991.69
2018-07-28T05:25:01.745Z,991.64
2018-07-28T05:30:01.979Z,991.57
2018-07-28T05:35:01.309Z,991.67
2018-07-28T05:40:01.581Z,991.71
2018-07-28T05:45:01.825Z,991.69
2018-07-28T05:50:02.456Z,991.58
2018-07-28T05:55:01.760Z,991.77
2018-07-28T06:00:02.070Z,991.77
2018-07-28T06:05:01.329Z,992.07
2018-07-28T06:10:01.616Z,992.35
2018-07-28T06:15:01.895Z,992.34
2018-07-28T06:20:02.373Z,992.38
2018-07-28T06:25:01.676Z,992.57
2018-07-28T06:30:01.928Z,992.64
2018-07-28T06:35:02.469Z,992.51
2018-07-28T06:40:01.753Z,992.46
2018-07-28T06:45:02.011Z,992.43
2018-07-28T06:50:01.278Z,992.61
2018-07-28T06:55:01.566Z,992.6
2018-07-28T07:00:01.831Z,992.62
2018-07-28T07:05:02.419Z,992.58
2018-07-28T07:10:01.698Z,992.63
2018-07-28T07:15:01.959Z,992.94
2018-07-28T07:20:01.249Z,993.07
2018-07-28T07:25:01.587Z,993.16
2018-07-28T07:30:01.842Z,993.16
2018-07-28T07:35:02.327Z,992.98
2018-07-28T07:40:01.613Z,992.91
2018-07-28T07:45:01.880Z,992.74
2018-07-28T07:50:02.370Z,992.84
2018-07-28T07:55:01.627Z,992.83
2018-07-28T08:00:01.864Z,992.83
2018-07-28T08:05:02.303Z,992.85
2018-07-28T08:10:01.661Z,993.07
2018-07-28T08:15:01.908Z,993.12
2018-07-28T08:20:02.353Z,993.07
2018-07-28T08:25:01.647Z,993.12
2018-07-28T08:30:01.938Z,993.05
2018-07-28T08:35:02.488Z,993.03
2018-07-28T08:40:02.082Z,992.99
2018-07-28T08:45:01.523Z,993.24
2018-07-28T08:50:01.971Z,993.38
2018-07-28T08:55:02.262Z,993.52
2018-07-28T09:00:01.532Z,993.4
2018-07-28T09:05:02.023Z,993.37
2018-07-28T09:10:01.308Z,993.41
2018-07-28T09:15:01.561Z,993.36
2018-07-28T09:20:01.966Z,993.35
2018-07-28T09:25:02.277Z,993.28
2018-07-28T09:30:01.555Z,993.31
2018-07-28T09:35:02.057Z,993.18
2018-07-28T09:40:01.307Z,993.26
2018-07-28T09:45:01.642Z,993.29
2018-07-28T09:50:02.111Z,993.22
2018-07-28T09:55:01.363Z,993.24
2018-07-28T10:00:01.608Z,993.22
2018-07-28T10:05:02.134Z,993.12
2018-07-28T10:10:01.445Z,993.14
2018-07-28T10:15:01.728Z,993.19
2018-07-28T10:20:02.183Z,993.26
2018-07-28T10:25:01.451Z,993.18
2018-07-28T10:30:01.798Z,993.05
2018-07-28T10:35:02.215Z,993.01
2018-07-28T10:40:01.508Z,992.95
2018-07-28T10:45:01.773Z,992.97
2018-07-28T10:50:02.254Z,992.97
2018-07-28T10:55:01.539Z,993
2018-07-28T11:00:02.096Z,992.99
2018-07-28T11:05:01.439Z,992.95
2018-07-28T11:10:01.722Z,992.89
2018-07-28T11:15:02.013Z,992.91
2018-07-28T11:20:01.333Z,992.93
2018-07-28T11:25:01.639Z,992.98
2018-07-28T11:30:01.904Z,993.07
2018-07-28T11:35:02.370Z,993.02
2018-07-28T11:40:01.634Z,993.08
2018-07-28T11:45:01.934Z,993.13
2018-07-28T11:50:02.372Z,993.13
2018-07-28T11:55:01.686Z,993.17
2018-07-28T12:00:01.967Z,993.22
2018-07-28T12:05:01.275Z,993.2
2018-07-28T12:10:01.517Z,993.23
2018-07-28T12:15:01.867Z,993.23
2018-07-28T12:20:02.305Z,993.2
2018-07-28T12:25:01.670Z,993.26
2018-07-28T12:30:01.948Z,993.26
2018-07-28T12:35:02.849Z,993.21
2018-07-28T12:40:02.208Z,993.37
2018-07-28T12:45:01.480Z,993.4
2018-07-28T12:50:01.819Z,993.52
2018-07-28T12:55:02.139Z,993.65
2018-07-28T13:00:01.404Z,993.67
2018-07-28T13:05:01.824Z,993.87
2018-07-28T13:10:02.276Z,993.66
2018-07-28T13:15:01.560Z,993.55
2018-07-28T13:20:02.226Z,993.7
2018-07-28T13:25:01.535Z,993.7
2018-07-28T13:30:01.877Z,993.74
2018-07-28T13:35:02.321Z,993.68
2018-07-28T13:40:01.580Z,993.55
2018-07-28T13:45:01.848Z,993.5
2018-07-28T13:50:02.311Z,993.42
2018-07-28T13:55:01.634Z,993.59
2018-07-28T14:00:01.869Z,993.52
2018-07-28T14:05:02.459Z,993.56
2018-07-28T14:10:01.741Z,993.56
2018-07-28T14:15:02.367Z,993.52
2018-07-28T14:20:01.934Z,993.4
2018-07-28T14:25:02.509Z,993.42
2018-07-28T14:30:01.804Z,993.54
2018-07-28T14:35:02.119Z,993.51
2018-07-28T14:40:01.380Z,993.43
2018-07-28T14:45:01.724Z,993.4
2018-07-28T14:50:02.218Z,993.56
2018-07-28T14:55:01.462Z,993.81
2018-07-28T15:00:01.721Z,993.8
2018-07-28T15:05:02.279Z,993.78
2018-07-28T15:10:01.598Z,993.77
2018-07-28T15:15:01.833Z,994.08
2018-07-28T15:20:02.319Z,994.13
2018-07-28T15:25:01.580Z,994.07
2018-07-28T15:30:01.824Z,994.05
2018-07-28T15:35:02.378Z,993.98
2018-07-28T15:40:01.739Z,994.05
2018-07-28T15:45:01.989Z,994.24
2018-07-28T15:50:02.492Z,994.2
2018-07-28T15:55:01.818Z,994.2
2018-07-28T16:00:02.120Z,994.14
2018-07-28T16:05:01.429Z,994.2
2018-07-28T16:10:01.733Z,994.13
2018-07-28T16:15:01.995Z,994.09
2018-07-28T16:20:01.572Z,994.17
2018-07-28T16:25:01.962Z,994.05
2018-07-28T16:30:02.220Z,994.06
2018-07-28T16:35:01.544Z,994.12
2018-07-28T16:40:01.977Z,994.23
2018-07-28T16:45:02.225Z,994.3
2018-07-28T16:50:01.494Z,994.26
2018-07-28T16:55:01.779Z,994.42
2018-07-28T17:00:02.101Z,994.46
2018-07-28T17:05:01.381Z,994.59
2018-07-28T17:10:01.643Z,994.6
2018-07-28T17:15:01.878Z,994.7
2018-07-28T17:20:02.392Z,994.8
2018-07-28T17:25:01.802Z,994.9
2018-07-28T17:30:02.066Z,994.96
2018-07-28T17:35:01.359Z,995.04
2018-07-28T17:40:01.658Z,995.08
2018-07-28T17:45:01.920Z,995.21
2018-07-28T17:50:02.351Z,995.34
2018-07-28T17:55:01.655Z,995.46
2018-07-28T18:00:02.394Z,995.55
2018-07-28T18:05:01.868Z,995.76
2018-07-28T18:10:02.144Z,995.81
2018-07-28T18:15:01.399Z,995.81
2018-07-28T18:20:01.841Z,995.87
2018-07-28T18:25:02.128Z,995.97
2018-07-28T18:30:01.421Z,996.04
2018-07-28T18:35:01.835Z,996.04
2018-07-28T18:40:02.147Z,996.13
2018-07-28T18:45:01.408Z,996.23
2018-07-28T18:50:01.836Z,996.26
2018-07-28T18:55:02.201Z,996.32
2018-07-28T19:00:01.463Z,996.31
2018-07-28T19:05:01.945Z,996.31
2018-07-28T19:10:02.235Z,996.37
2018-07-28T19:15:01.531Z,996.41
2018-07-28T19:20:02.058Z,996.51
2018-07-28T19:25:01.299Z,996.69
2018-07-28T19:30:01.556Z,996.83
2018-07-28T19:35:02.098Z,996.99
2018-07-28T19:40:01.340Z,997.12
2018-07-28T19:45:01.664Z,997.23
2018-07-28T19:50:02.058Z,997.34
2018-07-28T19:55:01.366Z,997.36
2018-07-28T20:00:01.635Z,997.3
2018-07-28T20:05:02.162Z,997.47
2018-07-28T20:10:01.456Z,997.52
2018-07-28T20:15:02.134Z,997.62
2018-07-28T20:20:01.475Z,997.74
2018-07-28T20:25:01.881Z,997.68
2018-07-28T20:30:02.175Z,997.68
2018-07-28T20:35:01.469Z,997.79
2018-07-28T20:40:01.752Z,997.86
2018-07-28T20:45:02.022Z,997.86
2018-07-28T20:50:01.347Z,997.84
2018-07-28T20:55:01.650Z,997.89
2018-07-28T21:00:01.948Z,997.92
2018-07-28T21:05:01.284Z,997.94
2018-07-28T21:10:01.833Z,998.03
2018-07-28T21:15:02.092Z,998.05
2018-07-28T21:20:01.388Z,998.13
2018-07-28T21:25:01.706Z,998.21
2018-07-28T21:30:01.971Z,998.18
2018-07-28T21:35:01.298Z,998.31
2018-07-28T21:40:01.584Z,998.34
2018-07-28T21:45:01.829Z,998.38
2018-07-28T21:50:02.260Z,998.44
2018-07-28T21:55:01.517Z,998.51
2018-07-28T22:00:01.815Z,998.55
2018-07-28T22:05:02.492Z,998.63
2018-07-28T22:10:01.780Z,998.62
2018-07-28T22:15:02.062Z,998.68
2018-07-28T22:20:01.361Z,998.74
2018-07-28T22:25:01.680Z,998.78
2018-07-28T22:30:01.911Z,998.8
2018-07-28T22:35:02.355Z,998.82
2018-07-28T22:40:01.643Z,998.98
2018-07-28T22:45:01.910Z,999.04
2018-07-28T22:50:02.167Z,998.93
2018-07-28T22:55:01.407Z,998.88
2018-07-28T23:00:01.666Z,998.83
2018-07-28T23:05:02.142Z,998.82
2018-07-28T23:10:01.411Z,998.84
2018-07-28T23:15:01.748Z,998.77
2018-07-28T23:20:02.188Z,998.79
2018-07-28T23:25:01.431Z,998.8
2018-07-28T23:30:01.759Z,998.84
2018-07-28T23:35:02.245Z,998.87
2018-07-28T23:40:01.535Z,998.99
2018-07-28T23:45:01.775Z,999.01
2018-07-28T23:50:02.106Z,998.95
2018-07-28T23:55:01.361Z,999.08
